createdAt,value
2023-05-16T00:00:45.468Z,53.60
2023-05-16T00:01:47.381Z,53.50
2023-05-16T00:02:50.172Z,53.29
2023-05-16T00:03:51.988Z,53.49
2023-05-16T00:04:54.754Z,53.62
2023-05-16T00:05:56.481Z,53.52
2023-05-16T00:06:59.235Z,53.33
2023-05-16T00:08:00.946Z,53.55
2023-05-16T00:09:05.109Z,53.45
2023-05-16T00:10:07.826Z,53.52
2023-05-16T00:11:10.508Z,53.34
2023-05-16T00:12:12.221Z,53.37
2023-05-16T00:13:14.939Z,53.38
2023-05-16T00:14:16.785Z,53.47
2023-05-16T00:15:20.310Z,53.61
2023-05-16T00:16:22.642Z,53.26
2023-05-16T00:17:28.914Z,53.34
2023-05-16T00:18:30.786Z,53.44
2023-05-16T00:19:33.546Z,53.22
2023-05-16T00:20:35.251Z,53.28
2023-05-16T00:21:37.945Z,53.34
2023-05-16T00:22:39.901Z,53.30
2023-05-16T00:23:43.075Z,53.43
2023-05-16T00:24:46.289Z,53.43
2023-05-16T00:25:49.372Z,53.39
2023-05-16T00:26:51.133Z,53.48
2023-05-16T00:27:53.844Z,53.56
2023-05-16T00:28:55.829Z,53.48
2023-05-16T00:29:58.456Z,53.51
2023-05-16T00:31:00.375Z,53.66
2023-05-16T00:32:03.176Z,53.60
2023-05-16T00:33:04.979Z,53.61
2023-05-16T00:34:07.762Z,53.70
2023-05-16T00:35:11.522Z,53.97
2023-05-16T00:36:14.266Z,53.97
2023-05-16T00:37:15.958Z,53.80
2023-05-16T00:38:18.624Z,54.06
2023-05-16T00:39:20.335Z,54.01
2023-05-16T00:40:24.522Z,54.15
2023-05-16T00:41:26.370Z,54.17
2023-05-16T00:42:29.027Z,54.33
2023-05-16T00:43:30.914Z,54.41
2023-05-16T00:44:33.701Z,54.24
2023-05-16T00:45:35.564Z,54.42
2023-05-16T00:46:38.347Z,54.62
2023-05-16T00:47:40.374Z,54.44
2023-05-16T00:48:43.084Z,54.57
2023-05-16T00:49:44.978Z,54.73
2023-05-16T00:50:47.877Z,54.63
2023-05-16T00:51:49.655Z,54.77
2023-05-16T00:52:52.378Z,54.67
2023-05-16T00:53:55.282Z,54.74
2023-05-16T00:54:58.166Z,54.84
2023-05-16T00:56:01.230Z,55.17
2023-05-16T00:57:04.649Z,55.13
2023-05-16T00:58:06.979Z,55.05
2023-05-16T00:59:09.651Z,55.15
2023-05-16T01:00:13.124Z,55.32
2023-05-16T01:01:15.944Z,55.28
2023-05-16T01:02:18.199Z,55.42
2023-05-16T01:03:21.420Z,55.48
2023-05-16T01:04:23.404Z,55.47
2023-05-16T01:05:26.597Z,55.48
2023-05-16T01:06:28.461Z,55.55
2023-05-16T01:07:31.147Z,55.51
2023-05-16T01:08:33.898Z,55.64
2023-05-16T01:09:37.019Z,55.99
2023-05-16T01:10:43.968Z,56.11
2023-05-16T01:11:53.261Z,56.05
2023-05-16T01:13:01.648Z,56.32
2023-05-16T01:14:13.377Z,56.29
2023-05-16T01:15:20.168Z,56.34
2023-05-16T01:16:27.814Z,56.20
2023-05-16T01:17:35.490Z,56.44
2023-05-16T01:18:43.242Z,56.54
2023-05-16T01:19:53.833Z,56.59
2023-05-16T01:21:04.093Z,56.67
2023-05-16T01:22:17.586Z,56.68
2023-05-16T01:23:35.207Z,56.71
2023-05-16T01:24:44.274Z,56.65
2023-05-16T01:25:58.366Z,56.79
2023-05-16T01:27:03.133Z,56.49
2023-05-16T01:28:06.428Z,56.80
2023-05-16T01:29:08.359Z,56.73
2023-05-16T01:30:18.747Z,56.67
2023-05-16T01:31:22.052Z,56.63
2023-05-16T01:32:23.917Z,56.45
2023-05-16T01:33:26.698Z,56.71
2023-05-16T01:34:28.557Z,56.67
2023-05-16T01:35:31.440Z,56.83
2023-05-16T01:36:37.705Z,56.91
2023-05-16T01:37:44.800Z,56.91
2023-05-16T01:39:01.894Z,56.75
2023-05-16T01:40:07.752Z,56.63
2023-05-16T01:41:16.198Z,56.93
2023-05-16T01:42:21.763Z,56.95
2023-05-16T01:43:31.206Z,56.82
2023-05-16T01:44:36.311Z,56.92
2023-05-16T01:45:44.216Z,56.93
2023-05-16T01:46:48.334Z,56.94
2023-05-16T01:47:54.181Z,56.78
2023-05-16T01:49:03.122Z,56.78
2023-05-16T01:50:09.770Z,57.05
2023-05-16T01:51:12.857Z,57.16
2023-05-16T01:52:20.096Z,57.38
2023-05-16T01:53:27.427Z,57.00
2023-05-16T01:54:33.020Z,57.42
2023-05-16T01:55:42.443Z,57.28
2023-05-16T01:56:49.139Z,57.40
2023-05-16T01:57:52.590Z,57.10
2023-05-16T01:58:56.313Z,57.42
2023-05-16T01:59:58.160Z,57.40
2023-05-16T02:01:03.357Z,57.67
2023-05-16T02:02:06.179Z,57.57
2023-05-16T02:03:08.100Z,57.66
2023-05-16T02:04:11.550Z,57.75
2023-05-16T02:05:13.374Z,57.67
2023-05-16T02:06:16.068Z,57.67
2023-05-16T02:07:18.065Z,57.71
2023-05-16T02:08:20.768Z,57.95
2023-05-16T02:09:22.479Z,57.77
2023-05-16T02:10:25.497Z,57.85
2023-05-16T02:11:27.291Z,57.72
2023-05-16T02:12:29.929Z,57.68
2023-05-16T02:13:33.111Z,57.88
2023-05-16T02:14:35.914Z,58.09
2023-05-16T02:15:37.739Z,57.87
2023-05-16T02:16:40.569Z,57.98
2023-05-16T02:17:42.709Z,57.96
2023-05-16T02:18:45.954Z,57.83
2023-05-16T02:19:47.717Z,57.91
2023-05-16T02:20:50.642Z,57.76
2023-05-16T02:21:52.401Z,57.92
2023-05-16T02:22:55.084Z,57.87
2023-05-16T02:23:56.840Z,57.87
2023-05-16T02:24:59.502Z,57.96
2023-05-16T02:26:01.181Z,58.12
2023-05-16T02:27:03.957Z,58.01
2023-05-16T02:28:05.672Z,58.15
2023-05-16T02:29:11.243Z,58.14
2023-05-16T02:30:13.470Z,58.03
2023-05-16T02:31:27.205Z,58.30
2023-05-16T02:32:28.969Z,58.13
2023-05-16T02:33:31.663Z,58.30
2023-05-16T02:34:33.413Z,58.24
2023-05-16T02:35:36.174Z,58.29
2023-05-16T02:36:37.882Z,58.34
2023-05-16T02:37:43.354Z,58.25
2023-05-16T02:38:45.022Z,58.25
2023-05-16T02:39:47.801Z,58.34
2023-05-16T02:40:49.681Z,58.33
2023-05-16T02:41:52.505Z,58.42
2023-05-16T02:42:54.240Z,58.48
2023-05-16T02:43:57.006Z,58.44
2023-05-16T02:45:00.181Z,58.40
2023-05-16T02:46:05.756Z,58.38
2023-05-16T02:47:07.650Z,58.43
2023-05-16T02:48:10.572Z,58.39
2023-05-16T02:49:12.401Z,58.22
2023-05-16T02:50:15.184Z,58.45
2023-05-16T02:51:16.944Z,58.54
2023-05-16T02:52:21.515Z,58.55
2023-05-16T02:53:23.196Z,58.37
2023-05-16T02:54:25.979Z,58.47
2023-05-16T02:55:27.689Z,58.54
2023-05-16T02:56:30.431Z,58.77
2023-05-16T02:57:32.106Z,58.98
2023-05-16T02:58:35.030Z,59.18
2023-05-16T02:59:36.758Z,59.13
2023-05-16T03:00:40.854Z,59.39
2023-05-16T03:01:42.599Z,59.34
2023-05-16T03:02:45.411Z,59.50
2023-05-16T03:03:47.301Z,59.11
2023-05-16T03:04:50.010Z,59.46
2023-05-16T03:05:51.900Z,59.50
2023-05-16T03:06:54.699Z,59.49
2023-05-16T03:07:56.482Z,59.80
2023-05-16T03:08:59.160Z,59.59
2023-05-16T03:10:01.114Z,59.64
2023-05-16T03:11:03.813Z,59.65
2023-05-16T03:12:07.080Z,59.79
2023-05-16T03:13:09.978Z,59.80
2023-05-16T03:14:12.276Z,60.49
2023-05-16T03:15:14.937Z,60.30
2023-05-16T03:16:18.031Z,59.85
2023-05-16T03:17:20.838Z,60.05
2023-05-16T03:18:22.722Z,60.01
2023-05-16T03:19:25.626Z,60.14
2023-05-16T03:20:27.323Z,60.18
2023-05-16T03:21:30.047Z,60.02
2023-05-16T03:22:31.751Z,59.99
2023-05-16T03:23:34.462Z,60.06
2023-05-16T03:24:36.257Z,60.39
2023-05-16T03:25:39.262Z,60.46
2023-05-16T03:26:41.169Z,60.34
2023-05-16T03:27:43.926Z,60.08
2023-05-16T03:28:45.686Z,60.67
2023-05-16T03:29:48.344Z,60.52
2023-05-16T03:30:50.038Z,60.35
2023-05-16T03:31:54.467Z,60.48
2023-05-16T03:32:56.588Z,60.51
2023-05-16T03:33:59.407Z,60.00
2023-05-16T03:35:02.183Z,60.12
2023-05-16T03:36:06.416Z,60.08
2023-05-16T03:37:08.338Z,59.98
2023-05-16T03:38:11.034Z,59.88
2023-05-16T03:39:13.706Z,59.90
2023-05-16T03:40:15.617Z,60.20
2023-05-16T03:41:18.338Z,59.98
2023-05-16T03:42:20.002Z,60.19
2023-05-16T03:43:22.699Z,59.83
2023-05-16T03:44:24.514Z,59.83
2023-05-16T03:45:27.476Z,59.97
2023-05-16T03:46:29.594Z,59.97
2023-05-16T03:47:33.775Z,60.22
2023-05-16T03:48:35.566Z,60.29
2023-05-16T03:49:38.272Z,60.10
2023-05-16T03:50:41.156Z,59.71
2023-05-16T03:51:43.961Z,59.83
2023-05-16T03:52:45.747Z,60.04
2023-05-16T03:53:48.425Z,60.16
2023-05-16T03:54:50.201Z,59.97
2023-05-16T03:55:52.880Z,59.80
2023-05-16T03:56:54.531Z,59.84
2023-05-16T03:57:57.315Z,59.70
2023-05-16T03:59:00.003Z,59.77
2023-05-16T04:00:01.739Z,59.95
2023-05-16T04:01:04.749Z,59.90
2023-05-16T04:02:06.737Z,59.61
2023-05-16T04:03:11.426Z,59.77
2023-05-16T04:04:13.751Z,59.81
2023-05-16T04:05:16.501Z,59.72
2023-05-16T04:06:18.335Z,60.05
2023-05-16T04:07:23.290Z,60.07
2023-05-16T04:08:25.831Z,59.87
2023-05-16T04:09:28.572Z,59.76
2023-05-16T04:10:30.467Z,60.06
2023-05-16T04:11:34.081Z,59.97
2023-05-16T04:12:35.999Z,59.80
2023-05-16T04:13:38.891Z,59.99
2023-05-16T04:14:40.675Z,59.55
2023-05-16T04:15:43.384Z,59.54
2023-05-16T04:16:45.327Z,59.82
2023-05-16T04:17:48.381Z,59.79
2023-05-16T04:18:53.066Z,59.87
2023-05-16T04:19:54.740Z,59.77
2023-05-16T04:20:57.444Z,59.86
2023-05-16T04:21:59.152Z,59.68
2023-05-16T04:23:01.943Z,59.67
2023-05-16T04:24:03.886Z,59.66
2023-05-16T04:25:07.601Z,59.27
2023-05-16T04:26:09.295Z,59.26
2023-05-16T04:27:12.199Z,59.33
2023-05-16T04:28:14.881Z,59.15
2023-05-16T04:29:17.229Z,59.40
2023-05-16T04:30:20.107Z,59.68
2023-05-16T04:31:23.292Z,59.35
2023-05-16T04:32:26.098Z,59.44
2023-05-16T04:33:27.851Z,59.39
2023-05-16T04:34:33.982Z,59.01
2023-05-16T04:35:35.692Z,59.21
2023-05-16T04:36:38.462Z,59.61
2023-05-16T04:37:40.180Z,59.81
2023-05-16T04:38:42.870Z,59.36
2023-05-16T04:39:44.568Z,59.65
2023-05-16T04:40:47.277Z,59.77
2023-05-16T04:41:48.974Z,59.57
2023-05-16T04:42:52.232Z,59.83
2023-05-16T04:43:54.737Z,59.81
2023-05-16T04:44:57.513Z,59.63
2023-05-16T04:45:59.290Z,59.64
2023-05-16T04:47:02.036Z,59.43
2023-05-16T04:48:04.036Z,59.63
2023-05-16T04:49:06.947Z,59.56
2023-05-16T04:50:10.932Z,59.53
2023-05-16T04:51:13.636Z,59.54
2023-05-16T04:52:15.433Z,59.52
2023-05-16T04:53:18.177Z,59.42
2023-05-16T04:54:19.874Z,59.21
2023-05-16T04:55:22.588Z,59.39
2023-05-16T04:56:24.248Z,59.69
2023-05-16T04:57:27.655Z,59.55
2023-05-16T04:58:30.373Z,59.26
2023-05-16T04:59:32.093Z,59.58
2023-05-16T05:00:34.871Z,59.60
2023-05-16T05:01:36.945Z,59.18
2023-05-16T05:02:39.842Z,59.07
2023-05-16T05:03:41.593Z,59.00
2023-05-16T05:04:44.266Z,59.18
2023-05-16T05:05:47.781Z,59.37
2023-05-16T05:06:50.494Z,59.09
2023-05-16T05:07:52.541Z,58.83
2023-05-16T05:08:55.667Z,59.15
2023-05-16T05:09:57.336Z,59.26
2023-05-16T05:11:00.058Z,58.93
2023-05-16T05:12:01.725Z,59.45
2023-05-16T05:13:04.484Z,58.76
2023-05-16T05:14:06.191Z,58.75
2023-05-16T05:15:19.260Z,58.59
2023-05-16T05:16:21.499Z,58.69
2023-05-16T05:17:24.477Z,58.39
2023-05-16T05:18:26.260Z,58.30
2023-05-16T05:19:29.146Z,57.87
2023-05-16T05:20:31.032Z,57.85
2023-05-16T05:21:35.078Z,57.93
2023-05-16T05:22:39.859Z,58.10
2023-05-16T05:25:23.893Z,58.03
2023-05-16T05:26:26.692Z,58.18
2023-05-16T05:27:33.582Z,58.16
2023-05-16T05:28:37.697Z,57.88
2023-05-16T05:29:40.560Z,57.95
2023-05-16T05:30:43.221Z,57.76
2023-05-16T05:31:46.221Z,58.03
2023-05-16T05:32:47.980Z,57.95
2023-05-16T05:34:03.050Z,58.22
2023-05-16T05:35:06.727Z,58.12
2023-05-16T05:36:09.328Z,57.74
2023-05-16T05:37:13.506Z,57.92
2023-05-16T05:38:16.329Z,57.73
2023-05-16T05:39:19.185Z,57.62
2023-05-16T05:40:21.020Z,57.56
2023-05-16T05:41:23.776Z,57.63
2023-05-16T05:42:41.206Z,57.38
2023-05-16T05:43:50.424Z,57.32
2023-05-16T05:44:53.353Z,57.45
2023-05-16T05:45:55.383Z,57.31
2023-05-16T05:46:58.456Z,57.53
2023-05-16T05:48:00.510Z,57.60
2023-05-16T05:49:03.549Z,57.41
2023-05-16T05:50:15.869Z,57.63
2023-05-16T05:51:18.786Z,57.89
2023-05-16T05:52:28.428Z,57.42
2023-05-16T05:53:30.497Z,57.97
2023-05-16T05:54:33.356Z,57.80
2023-05-16T05:55:35.130Z,57.63
2023-05-16T05:56:37.851Z,57.80
2023-05-16T05:57:40.532Z,57.61
2023-05-16T05:58:42.453Z,57.79
2023-05-16T05:59:45.198Z,57.68
2023-05-16T06:00:49.692Z,57.62
2023-05-16T06:01:53.200Z,57.55
2023-05-16T06:02:55.824Z,57.73
2023-05-16T06:03:59.696Z,57.57
2023-05-16T06:05:03.518Z,57.89
2023-05-16T06:06:06.829Z,57.91
2023-05-16T06:07:09.619Z,57.86
2023-05-16T06:08:12.742Z,57.80
2023-05-16T06:09:15.633Z,57.98
2023-05-16T06:10:17.559Z,57.99
2023-05-16T06:11:21.568Z,58.18
2023-05-16T06:12:23.324Z,58.42
2023-05-16T06:13:26.164Z,58.41
2023-05-16T06:14:28.018Z,58.12
2023-05-16T06:15:30.847Z,58.23
2023-05-16T06:16:32.704Z,58.30
2023-05-16T06:17:35.661Z,58.34
2023-05-16T06:18:38.460Z,58.19
2023-05-16T06:19:40.240Z,58.35
2023-05-16T06:20:42.973Z,58.31
2023-05-16T06:21:44.872Z,58.34
2023-05-16T06:22:47.630Z,58.13
2023-05-16T06:23:51.778Z,58.18
2023-05-16T06:24:53.510Z,58.15
2023-05-16T06:25:56.231Z,57.88
2023-05-16T06:26:58.162Z,57.87
2023-05-16T06:28:00.881Z,57.82
2023-05-16T06:29:02.540Z,57.43
2023-05-16T06:30:06.140Z,57.42
2023-05-16T06:31:08.072Z,57.37
2023-05-16T06:32:13.037Z,57.26
2023-05-16T06:33:15.264Z,56.65
2023-05-16T06:34:17.952Z,55.50
2023-05-16T06:35:19.697Z,54.48
2023-05-16T06:36:22.462Z,54.10
2023-05-16T06:37:24.542Z,53.88
2023-05-16T06:38:27.204Z,53.49
2023-05-16T06:39:30.362Z,53.33
2023-05-16T06:40:33.089Z,53.22
2023-05-16T06:41:34.840Z,53.21
2023-05-16T06:42:37.746Z,53.18
2023-05-16T06:43:40.540Z,53.19
2023-05-16T06:44:46.350Z,53.28
2023-05-16T06:45:51.094Z,52.85
2023-05-16T06:47:05.976Z,52.85
2023-05-16T06:48:15.553Z,52.97
2023-05-16T06:49:33.564Z,52.37
2023-05-16T06:50:38.478Z,52.43
2023-05-16T06:51:40.584Z,52.24
2023-05-16T06:52:43.328Z,52.09
2023-05-16T06:53:45.072Z,52.16
2023-05-16T06:54:49.171Z,51.90
2023-05-16T06:55:51.310Z,51.82
2023-05-16T06:56:54.018Z,51.76
2023-05-16T06:57:56.732Z,52.12
2023-05-16T06:59:01.714Z,52.43
2023-05-16T07:00:04.069Z,52.29
2023-05-16T07:01:06.970Z,52.23
2023-05-16T07:02:08.731Z,52.64
2023-05-16T07:03:11.539Z,52.65
2023-05-16T07:04:13.409Z,53.02
2023-05-16T07:05:16.233Z,53.17
2023-05-16T07:06:18.044Z,52.89
2023-05-16T07:07:20.849Z,52.93
2023-05-16T07:08:22.582Z,52.99
2023-05-16T07:09:25.313Z,52.98
2023-05-16T07:10:30.888Z,53.29
2023-05-16T07:11:33.576Z,53.18
2023-05-16T07:12:36.114Z,53.29
2023-05-16T07:13:39.023Z,53.20
2023-05-16T07:14:41.670Z,53.40
2023-05-16T07:15:44.546Z,53.59
2023-05-16T07:16:47.087Z,53.69
2023-05-16T07:17:50.957Z,54.14
2023-05-16T07:18:54.051Z,53.95
2023-05-16T07:19:56.962Z,53.73
2023-05-16T07:20:58.709Z,53.68
2023-05-16T07:22:01.428Z,53.93
2023-05-16T07:23:03.219Z,53.77
2023-05-16T07:24:06.885Z,54.31
2023-05-16T07:25:12.653Z,53.96
2023-05-16T07:26:16.026Z,54.24
2023-05-16T07:27:19.545Z,54.20
2023-05-16T07:28:23.701Z,54.13
2023-05-16T07:29:25.655Z,53.97
2023-05-16T07:30:28.581Z,54.23
2023-05-16T07:31:31.307Z,54.21
2023-05-16T07:32:34.080Z,54.62
2023-05-16T07:33:36.793Z,54.31
2023-05-16T07:34:38.527Z,54.77
2023-05-16T07:35:41.311Z,54.74
2023-05-16T07:36:43.031Z,54.68
2023-05-16T07:37:45.870Z,54.65
2023-05-16T07:38:47.664Z,54.54
2023-05-16T07:39:50.345Z,54.75
2023-05-16T07:40:53.132Z,54.89
2023-05-16T07:41:56.805Z,54.92
2023-05-16T07:42:59.651Z,54.82
2023-05-16T07:44:01.421Z,55.10
2023-05-16T07:45:04.531Z,54.92
2023-05-16T07:46:06.459Z,54.88
2023-05-16T07:47:09.338Z,55.06
2023-05-16T07:48:12.180Z,54.78
2023-05-16T07:49:13.909Z,54.55
2023-05-16T07:50:16.640Z,54.61
2023-05-16T07:51:18.442Z,54.69
2023-05-16T07:52:21.223Z,54.83
2023-05-16T07:53:23.986Z,54.48
2023-05-16T07:54:25.848Z,54.65
2023-05-16T07:55:28.853Z,54.11
2023-05-16T07:56:30.808Z,54.09
2023-05-16T07:57:34.885Z,54.16
2023-05-16T07:58:37.770Z,54.16
2023-05-16T07:59:39.525Z,54.57
2023-05-16T08:00:42.273Z,54.60
2023-05-16T08:01:44.058Z,54.36
2023-05-16T08:02:46.903Z,54.80
2023-05-16T08:03:48.778Z,55.03
2023-05-16T08:04:51.551Z,55.07
2023-05-16T08:05:54.282Z,55.28
2023-05-16T08:06:56.060Z,55.54
2023-05-16T08:07:58.815Z,55.55
2023-05-16T08:09:00.845Z,55.81
2023-05-16T08:10:03.690Z,55.58
2023-05-16T08:11:06.831Z,56.06
2023-05-16T08:12:09.616Z,56.17
2023-05-16T08:13:13.770Z,55.88
2023-05-16T08:14:15.706Z,56.26
2023-05-16T08:15:18.481Z,55.83
2023-05-16T08:16:20.277Z,55.47
2023-05-16T08:17:23.137Z,55.52
2023-05-16T08:18:24.992Z,55.14
2023-05-16T08:19:29.418Z,55.52
2023-05-16T08:20:32.360Z,55.97
2023-05-16T08:21:35.275Z,55.93
2023-05-16T08:22:37.128Z,55.98
2023-05-16T08:23:39.826Z,56.05
2023-05-16T08:24:41.624Z,56.10
2023-05-16T08:25:44.575Z,56.22
2023-05-16T08:26:46.401Z,56.49
2023-05-16T08:27:50.976Z,57.12
2023-05-16T08:28:54.068Z,56.81
2023-05-16T08:29:56.916Z,57.27
2023-05-16T08:30:59.714Z,57.45
2023-05-16T08:32:01.872Z,57.38
2023-05-16T08:33:05.546Z,57.55
2023-05-16T08:34:07.388Z,57.85
2023-05-16T08:35:11.113Z,58.03
2023-05-16T08:36:12.866Z,58.11
2023-05-16T08:37:17.296Z,58.27
2023-05-16T08:38:20.292Z,58.34
2023-05-16T08:39:23.050Z,58.78
2023-05-16T08:40:26.350Z,58.77
2023-05-16T08:41:29.156Z,58.79
2023-05-16T08:42:30.888Z,58.28
2023-05-16T08:43:35.208Z,58.32
2023-05-16T08:44:39.346Z,58.69
2023-05-16T08:45:41.812Z,58.56
2023-05-16T08:46:46.350Z,58.60
2023-05-16T08:47:50.401Z,59.02
2023-05-16T08:48:54.638Z,58.55
2023-05-16T08:49:57.795Z,59.12
2023-05-16T08:51:01.906Z,59.00
2023-05-16T08:52:04.555Z,59.08
2023-05-16T08:53:09.245Z,58.82
2023-05-16T08:54:13.374Z,59.18
2023-05-16T08:55:17.495Z,59.05
2023-05-16T08:56:22.250Z,59.28
2023-05-16T08:57:25.186Z,59.07
2023-05-16T08:58:28.162Z,59.44
2023-05-16T08:59:30.134Z,58.93
2023-05-16T09:00:34.241Z,59.08
2023-05-16T09:01:37.196Z,59.44
2023-05-16T09:02:39.704Z,59.40
2023-05-16T09:03:42.901Z,58.86
2023-05-16T09:04:46.190Z,59.27
2023-05-16T09:05:48.174Z,59.51
2023-05-16T09:06:51.499Z,59.38
2023-05-16T09:07:54.240Z,59.28
2023-05-16T09:08:56.533Z,59.32
2023-05-16T09:09:59.230Z,59.72
2023-05-16T09:11:02.206Z,59.46
2023-05-16T09:12:06.190Z,59.97
2023-05-16T09:13:08.916Z,59.61
2023-05-16T09:14:11.625Z,59.47
2023-05-16T09:15:13.436Z,58.86
2023-05-16T09:16:19.103Z,58.85
2023-05-16T09:17:28.766Z,59.23
2023-05-16T09:18:42.459Z,59.37
2023-05-16T09:19:44.615Z,58.86
2023-05-16T09:20:50.244Z,58.89
2023-05-16T09:21:52.275Z,58.64
2023-05-16T09:22:56.207Z,58.34
2023-05-16T09:24:04.819Z,58.33
2023-05-16T09:25:15.282Z,58.09
2023-05-16T09:26:22.014Z,57.24
2023-05-16T09:27:24.734Z,57.61
2023-05-16T09:28:27.813Z,56.98
2023-05-16T09:29:29.551Z,56.98
2023-05-16T09:30:34.430Z,56.50
2023-05-16T09:31:38.776Z,55.97
2023-05-16T09:32:44.036Z,55.77
2023-05-16T09:33:46.816Z,55.77
2023-05-16T09:34:51.541Z,55.18
2023-05-16T09:35:58.281Z,55.36
2023-05-16T09:37:00.228Z,54.91
2023-05-16T09:38:02.949Z,54.21
2023-05-16T09:39:07.097Z,54.50
2023-05-16T09:40:10.654Z,54.21
2023-05-16T09:41:13.789Z,53.77
2023-05-16T09:42:16.042Z,53.59
2023-05-16T09:43:19.313Z,53.73
2023-05-16T09:44:21.088Z,53.97
2023-05-16T09:45:23.823Z,53.87
2023-05-16T09:46:27.564Z,53.63
2023-05-16T09:47:30.787Z,52.95
2023-05-16T09:48:34.261Z,52.54
2023-05-16T09:49:37.414Z,53.12
2023-05-16T09:50:40.618Z,53.53
2023-05-16T09:51:43.480Z,53.32
2023-05-16T09:52:45.312Z,53.18
2023-05-16T09:53:48.204Z,53.13
2023-05-16T09:54:50.179Z,52.99
2023-05-16T09:56:01.010Z,52.80
2023-05-16T09:57:03.804Z,52.94
2023-05-16T09:58:05.984Z,52.14
2023-05-16T09:59:12.014Z,52.54
2023-05-16T10:00:14.893Z,52.54
2023-05-16T10:01:18.115Z,52.78
2023-05-16T10:02:20.505Z,52.94
2023-05-16T10:03:24.886Z,52.83
2023-05-16T10:04:27.760Z,52.98
2023-05-16T10:05:32.030Z,53.06
2023-05-16T10:06:34.970Z,53.01
2023-05-16T10:07:39.040Z,52.48
2023-05-16T10:08:43.775Z,52.26
2023-05-16T10:09:46.239Z,50.75
2023-05-16T10:10:52.679Z,50.68
2023-05-16T10:11:56.028Z,50.58
2023-05-16T10:13:01.405Z,50.52
2023-05-16T10:14:05.002Z,50.66
2023-05-16T10:15:09.612Z,50.55
2023-05-16T10:16:12.610Z,50.46
2023-05-16T10:17:16.648Z,50.71
2023-05-16T10:18:19.993Z,50.65
2023-05-16T10:19:26.781Z,51.00
2023-05-16T10:20:29.555Z,50.48
2023-05-16T10:21:33.422Z,50.66
2023-05-16T10:22:35.916Z,50.33
2023-05-16T10:23:40.597Z,50.52
2023-05-16T10:24:46.182Z,50.59
2023-05-16T10:25:48.995Z,50.35
2023-05-16T10:26:53.552Z,50.37
2023-05-16T10:27:55.704Z,50.00
2023-05-16T10:28:58.469Z,49.42
2023-05-16T10:30:02.046Z,49.16
2023-05-16T10:31:06.453Z,49.34
2023-05-16T10:32:09.009Z,49.19
2023-05-16T10:33:13.535Z,48.87
2023-05-16T10:34:17.137Z,49.01
2023-05-16T10:35:23.247Z,48.97
2023-05-16T10:36:26.526Z,48.79
2023-05-16T10:37:28.585Z,48.92
2023-05-16T10:38:31.647Z,48.61
2023-05-16T10:39:33.663Z,48.65
2023-05-16T10:40:37.534Z,48.02
2023-05-16T10:41:40.478Z,48.00
2023-05-16T10:42:48.087Z,48.32
2023-05-16T10:43:57.577Z,48.10
2023-05-16T10:45:10.754Z,48.20
2023-05-16T10:46:14.210Z,48.14
2023-05-16T10:47:19.294Z,48.17
2023-05-16T10:48:30.158Z,48.31
2023-05-16T10:49:32.909Z,48.12
2023-05-16T10:50:37.522Z,47.80
2023-05-16T10:51:40.308Z,47.48
2023-05-16T10:52:42.135Z,47.53
2023-05-16T10:53:45.136Z,47.28
2023-05-16T10:54:52.224Z,46.79
2023-05-16T10:56:11.955Z,47.00
2023-05-16T10:57:19.953Z,46.92
2023-05-16T10:58:26.222Z,46.98
2023-05-16T10:59:28.958Z,46.64
2023-05-16T11:00:30.949Z,46.50
2023-05-16T11:01:34.777Z,46.78
2023-05-16T11:02:42.455Z,46.82
2023-05-16T11:04:11.916Z,46.56
2023-05-16T11:05:19.652Z,46.39
2023-05-16T11:06:24.876Z,46.79
2023-05-16T11:07:32.396Z,46.39
2023-05-16T11:08:35.484Z,46.19
2023-05-16T11:09:38.210Z,45.41
2023-05-16T11:10:40.942Z,45.45
2023-05-16T11:11:48.743Z,45.08
2023-05-16T11:12:54.666Z,44.83
2023-05-16T11:13:56.445Z,44.45
2023-05-16T11:14:59.502Z,44.40
2023-05-16T11:16:29.405Z,44.32
2023-05-16T11:17:41.866Z,44.25
2023-05-16T11:18:51.505Z,43.81
2023-05-16T11:19:59.039Z,43.77
2023-05-16T11:21:04.897Z,43.80
2023-05-16T11:22:27.752Z,43.47
2023-05-16T11:23:29.562Z,43.58
2023-05-16T11:24:32.820Z,43.48
2023-05-16T11:25:39.259Z,43.15
2023-05-16T11:26:42.201Z,42.94
2023-05-16T11:27:45.935Z,42.95
2023-05-16T11:28:49.580Z,42.66
2023-05-16T11:29:52.688Z,42.26
2023-05-16T11:30:57.519Z,41.83
2023-05-16T11:31:59.844Z,41.78
2023-05-16T11:33:02.837Z,41.55
2023-05-16T11:34:04.634Z,41.38
2023-05-16T11:35:11.066Z,41.64
2023-05-16T11:36:16.405Z,41.55
2023-05-16T11:37:20.961Z,41.53
2023-05-16T11:38:25.383Z,40.93
2023-05-16T11:39:27.464Z,40.65
2023-05-16T11:40:30.285Z,40.71
2023-05-16T11:41:32.690Z,40.40
2023-05-16T11:42:37.539Z,40.46
2023-05-16T11:43:41.444Z,40.95
2023-05-16T11:44:44.180Z,40.34
2023-05-16T11:45:47.403Z,40.09
2023-05-16T11:46:49.259Z,40.13
2023-05-16T11:47:52.519Z,40.20
2023-05-16T11:48:54.606Z,40.00
2023-05-16T11:49:58.760Z,40.07
2023-05-16T11:51:00.834Z,39.85
2023-05-16T11:52:04.035Z,39.35
2023-05-16T11:53:09.246Z,38.98
2023-05-16T11:54:13.967Z,39.32
2023-05-16T11:55:28.313Z,39.31
2023-05-16T11:56:42.042Z,38.30
2023-05-16T11:57:44.930Z,36.90
2023-05-16T11:58:47.685Z,36.63
2023-05-16T11:59:50.765Z,36.27
2023-05-16T12:00:53.510Z,36.22
2023-05-16T12:01:56.284Z,36.52
2023-05-16T12:03:01.954Z,36.70
2023-05-16T12:04:09.991Z,36.09
2023-05-16T12:05:13.151Z,36.00
2023-05-16T12:06:16.414Z,35.64
2023-05-16T12:07:23.309Z,35.39
2023-05-16T12:08:25.291Z,35.73
2023-05-16T12:09:29.420Z,35.96
2023-05-16T12:10:34.153Z,36.04
2023-05-16T12:11:38.465Z,35.94
2023-05-16T12:12:42.490Z,35.85
2023-05-16T12:13:45.479Z,35.52
2023-05-16T12:14:50.418Z,35.59
2023-05-16T12:15:53.809Z,35.58
2023-05-16T12:16:56.760Z,35.63
2023-05-16T12:17:58.920Z,35.38
2023-05-16T12:19:02.133Z,34.90
2023-05-16T12:20:06.763Z,34.73
2023-05-16T12:21:09.558Z,34.95
2023-05-16T12:22:17.640Z,34.88
2023-05-16T12:23:20.370Z,34.63
2023-05-16T12:24:23.168Z,34.89
2023-05-16T12:25:30.121Z,34.92
2023-05-16T12:26:33.467Z,34.49
2023-05-16T12:27:36.372Z,34.46
2023-05-16T12:28:39.628Z,34.59
2023-05-16T12:29:48.409Z,34.47
2023-05-16T12:30:51.150Z,34.41
2023-05-16T12:31:54.610Z,34.10
2023-05-16T12:32:57.522Z,34.01
2023-05-16T12:34:00.736Z,34.10
2023-05-16T12:35:03.597Z,34.13
2023-05-16T12:36:06.961Z,33.95
2023-05-16T12:37:09.710Z,33.56
2023-05-16T12:38:13.817Z,33.83
2023-05-16T12:39:16.591Z,33.75
2023-05-16T12:40:18.459Z,33.18
2023-05-16T12:41:23.603Z,33.66
2023-05-16T12:42:27.119Z,33.19
2023-05-16T12:43:29.913Z,33.00
2023-05-16T12:44:32.628Z,32.35
2023-05-16T12:45:35.680Z,32.38
2023-05-16T12:46:41.495Z,32.06
2023-05-16T12:47:44.264Z,32.18
2023-05-16T12:48:48.409Z,32.15
2023-05-16T12:49:51.313Z,31.86
2023-05-16T12:50:54.088Z,31.22
2023-05-16T12:51:57.256Z,31.12
2023-05-16T12:53:01.239Z,30.87
2023-05-16T12:54:10.377Z,30.95
2023-05-16T12:55:13.433Z,31.32
2023-05-16T12:56:16.985Z,31.08
2023-05-16T12:57:21.056Z,31.02
2023-05-16T12:58:23.766Z,30.53
2023-05-16T12:59:27.055Z,30.87
2023-05-16T13:00:29.027Z,30.74
2023-05-16T13:01:31.974Z,30.45
2023-05-16T13:02:34.751Z,30.65
2023-05-16T13:03:37.692Z,30.74
2023-05-16T13:04:40.450Z,30.19
2023-05-16T13:05:43.412Z,29.33
2023-05-16T13:06:58.266Z,28.40
2023-05-16T13:08:02.567Z,28.67
2023-05-16T13:09:05.447Z,28.69
2023-05-16T13:10:10.559Z,28.79
2023-05-16T13:11:13.284Z,28.24
2023-05-16T13:12:15.785Z,27.29
2023-05-16T13:13:35.008Z,27.20
2023-05-16T13:14:39.818Z,26.91
2023-05-16T13:15:43.861Z,26.98
2023-05-16T13:16:45.674Z,27.50
2023-05-16T13:17:48.937Z,26.85
2023-05-16T13:18:52.345Z,27.31
2023-05-16T13:19:54.136Z,26.85
2023-05-16T13:20:56.938Z,25.84
2023-05-16T13:21:59.675Z,26.15
2023-05-16T13:23:02.622Z,25.71
2023-05-16T13:24:06.667Z,25.89
2023-05-16T13:25:10.505Z,25.91
2023-05-16T13:26:13.323Z,26.19
2023-05-16T13:27:17.403Z,25.95
2023-05-16T13:28:21.467Z,25.99
2023-05-16T13:29:24.538Z,25.97
2023-05-16T13:30:27.371Z,25.96
2023-05-16T13:31:29.170Z,26.03
2023-05-16T13:32:31.979Z,26.16
2023-05-16T13:33:33.799Z,25.63
2023-05-16T13:34:36.520Z,26.48
2023-05-16T13:35:39.277Z,26.20
2023-05-16T13:36:53.024Z,25.98
2023-05-16T13:37:57.325Z,26.15
2023-05-16T13:38:59.079Z,25.56
2023-05-16T13:40:01.784Z,25.21
2023-05-16T13:41:04.573Z,25.24
2023-05-16T13:42:06.377Z,25.34